sensor_id;sensor_type;location;lat;lon;timestamp;temperature;humidity
52869;DHT22;39100;53.480;6.158;2024-01-30T10:32:02;9.20;99.90
52869;DHT22;39100;53.480;6.158;2024-01-30T10:34:28;9.10;99.90
52869;DHT22;39100;53.480;6.158;2024-01-30T10:37:08;9.20;99.90
52869;DHT22;39100;53.480;6.158;2024-01-30T10:39:46;9.10;99.90
52869;DHT22;39100;53.480;6.158;2024-01-30T10:42:13;9.20;99.90
52869;DHT22;39100;53.480;6.158;2024-01-30T10:45:00;9.20;99.90
52869;DHT22;39100;53.480;6.158;2024-01-30T10:47:29;9.10;99.90
52869;DHT22;39100;53.480;6.158;2024-01-30T10:49:56;9.10;99.90
52869;DHT22;39100;53.480;6.158;2024-01-30T10:52:23;9.10;99.90
52869;DHT22;39100;53.480;6.158;2024-01-30T10:54:51;9.10;99.90
52869;DHT22;39100;53.480;6.158;2024-01-30T10:57:18;9.10;99.90
52869;DHT22;39100;53.480;6.158;2024-01-30T10:59:44;9.00;99.90
52869;DHT22;39100;53.480;6.158;2024-01-30T11:02:10;9.00;99.90
52869;DHT22;39100;53.480;6.158;2024-01-30T11:04:37;9.00;99.90
52869;DHT22;39100;53.480;6.158;2024-01-30T11:07:13;8.90;99.90
52869;DHT22;39100;53.480;6.158;2024-01-30T11:09:40;9.00;99.90
52869;DHT22;39100;53.480;6.158;2024-01-30T11:12:12;9.00;99.90
52869;DHT22;39100;53.480;6.158;2024-01-30T11:14:38;8.90;99.90
52869;DHT22;39100;53.480;6.158;2024-01-30T11:17:05;9.00;99.90
52869;DHT22;39100;53.480;6.158;2024-01-30T11:19:31;8.90;99.90
52869;DHT22;39100;53.480;6.158;2024-01-30T11:21:57;8.90;99.90
52869;DHT22;39100;53.480;6.158;2024-01-30T11:24:24;9.00;99.90
52869;DHT22;39100;53.480;6.158;2024-01-30T11:26:55;8.90;99.90
52869;DHT22;39100;53.480;6.158;2024-01-30T11:29:24;8.90;99.90
52869;DHT22;39100;53.480;6.158;2024-01-30T11:31:54;9.00;99.90
52869;DHT22;39100;53.480;6.158;2024-01-30T11:34:21;9.00;99.90
52869;DHT22;39100;53.480;6.158;2024-01-30T11:36:55;9.00;99.90
52869;DHT22;39100;53.480;6.158;2024-01-30T11:39:25;9.00;99.90
52869;DHT22;39100;53.480;6.158;2024-01-30T11:41:52;9.00;99.90
52869;DHT22;39100;53.480;6.158;2024-01-30T11:44:20;8.90;99.90
52869;DHT22;39100;53.480;6.158;2024-01-30T11:46:51;8.90;99.90
52869;DHT22;39100;53.480;6.158;2024-01-30T11:49:17;8.90;99.90
52869;DHT22;39100;53.480;6.158;2024-01-30T11:51:45;8.90;99.90
52869;DHT22;39100;53.480;6.158;2024-01-30T11:54:11;8.80;99.90
52869;DHT22;39100;53.480;6.158;2024-01-30T11:56:37;8.90;99.90
52869;DHT22;39100;53.480;6.158;2024-01-30T11:59:04;8.80;99.90
52869;DHT22;39100;53.480;6.158;2024-01-30T12:01:30;8.80;99.90
52869;DHT22;39100;53.480;6.158;2024-01-30T12:03:57;8.90;99.90
52869;DHT22;39100;53.480;6.158;2024-01-30T12:06:23;8.80;99.90
52869;DHT22;39100;53.480;6.158;2024-01-30T12:09:03;8.80;99.90
52869;DHT22;39100;53.480;6.158;2024-01-30T12:11:30;8.90;99.90
52869;DHT22;39100;53.480;6.158;2024-01-30T12:13:56;8.90;99.90
52869;DHT22;39100;53.480;6.158;2024-01-30T12:16:21;8.90;99.90
52869;DHT22;39100;53.480;6.158;2024-01-30T12:18:48;8.90;99.90
52869;DHT22;39100;53.480;6.158;2024-01-30T12:21:16;8.80;99.90
52869;DHT22;39100;53.480;6.158;2024-01-30T12:23:42;8.80;99.90
52869;DHT22;39100;53.480;6.158;2024-01-30T12:26:08;8.80;99.90
52869;DHT22;39100;53.480;6.158;2024-01-30T12:28:35;8.80;99.90
52869;DHT22;39100;53.480;6.158;2024-01-30T12:31:03;8.90;99.90
52869;DHT22;39100;53.480;6.158;2024-01-30T12:33:30;8.90;99.90
52869;DHT22;39100;53.480;6.158;2024-01-30T12:35:57;8.80;99.90
52869;DHT22;39100;53.480;6.158;2024-01-30T12:38:24;8.80;99.90
52869;DHT22;39100;53.480;6.158;2024-01-30T12:40:54;8.80;99.90
52869;DHT22;39100;53.480;6.158;2024-01-30T12:43:19;8.90;99.90
52869;DHT22;39100;53.480;6.158;2024-01-30T12:45:45;8.80;99.90
52869;DHT22;39100;53.480;6.158;2024-01-30T12:48:12;8.90;99.90
52869;DHT22;39100;53.480;6.158;2024-01-30T12:50:37;8.80;99.90
52869;DHT22;39100;53.480;6.158;2024-01-30T12:53:03;8.80;99.90
52869;DHT22;39100;53.480;6.158;2024-01-30T12:55:30;8.80;99.90
52869;DHT22;39100;53.480;6.158;2024-01-30T12:57:55;8.80;99.90
52869;DHT22;39100;53.480;6.158;2024-01-30T13:00:21;8.90;99.90
52869;DHT22;39100;53.480;6.158;2024-01-30T13:02:48;8.80;99.90
52869;DHT22;39100;53.480;6.158;2024-01-30T13:05:14;8.90;99.90
52869;DHT22;39100;53.480;6.158;2024-01-30T13:07:39;8.90;99.90
52869;DHT22;39100;53.480;6.158;2024-01-30T13:10:05;8.90;99.90
52869;DHT22;39100;53.480;6.158;2024-01-30T13:12:31;8.70;99.90
52869;DHT22;39100;53.480;6.158;2024-01-30T13:14:58;8.90;99.90
52869;DHT22;39100;53.480;6.158;2024-01-30T13:17:26;8.80;99.90
52869;DHT22;39100;53.480;6.158;2024-01-30T13:19:52;8.80;99.90
52869;DHT22;39100;53.480;6.158;2024-01-30T13:22:17;8.70;99.90
52869;DHT22;39100;53.480;6.158;2024-01-30T13:24:43;8.80;99.90
52869;DHT22;39100;53.480;6.158;2024-01-30T13:27:08;8.70;99.90
52869;DHT22;39100;53.480;6.158;2024-01-30T13:29:34;8.80;99.90
52869;DHT22;39100;53.480;6.158;2024-01-30T13:31:59;8.70;99.90
52869;DHT22;39100;53.480;6.158;2024-01-30T13:34:25;8.70;99.90
52869;DHT22;39100;53.480;6.158;2024-01-30T13:36:51;8.70;99.90
52869;DHT22;39100;53.480;6.158;2024-01-30T13:39:17;8.60;99.90
52869;DHT22;39100;53.480;6.158;2024-01-30T13:41:42;8.80;99.90
52869;DHT22;39100;53.480;6.158;2024-01-30T13:44:08;8.60;99.90
52869;DHT22;39100;53.480;6.158;2024-01-30T13:46:35;8.60;99.90
52869;DHT22;39100;53.480;6.158;2024-01-30T13:49:01;8.70;99.90
52869;DHT22;39100;53.480;6.158;2024-01-30T13:51:27;8.70;99.90
52869;DHT22;39100;53.480;6.158;2024-01-30T13:53:53;8.60;99.90
52869;DHT22;39100;53.480;6.158;2024-01-30T13:56:20;8.70;99.90
52869;DHT22;39100;53.480;6.158;2024-01-30T13:58:48;8.50;99.90
52869;DHT22;39100;53.480;6.158;2024-01-30T14:01:13;8.60;99.90
52869;DHT22;39100;53.480;6.158;2024-01-30T14:03:39;8.50;99.90
52869;DHT22;39100;53.480;6.158;2024-01-30T14:06:05;8.50;99.90
52869;DHT22;39100;53.480;6.158;2024-01-30T14:08:31;8.60;99.90
52869;DHT22;39100;53.480;6.158;2024-01-30T14:10:56;8.60;99.90
52869;DHT22;39100;53.480;6.158;2024-01-30T14:13:22;8.40;99.90
52869;DHT22;39100;53.480;6.158;2024-01-30T14:15:48;8.40;99.90
52869;DHT22;39100;53.480;6.158;2024-01-30T14:18:15;8.50;99.90
52869;DHT22;39100;53.480;6.158;2024-01-30T14:20:41;8.50;99.90
52869;DHT22;39100;53.480;6.158;2024-01-30T14:23:06;8.50;99.90
52869;DHT22;39100;53.480;6.158;2024-01-30T14:25:32;8.40;99.90
52869;DHT22;39100;53.480;6.158;2024-01-30T14:27:58;8.50;99.90
52869;DHT22;39100;53.480;6.158;2024-01-30T14:30:23;8.50;99.90
52869;DHT22;39100;53.480;6.158;2024-01-30T14:32:49;8.40;99.90
52869;DHT22;39100;53.480;6.158;2024-01-30T14:35:15;8.30;99.90
52869;DHT22;39100;53.480;6.158;2024-01-30T14:37:41;8.40;99.90
52869;DHT22;39100;53.480;6.158;2024-01-30T14:40:07;8.40;99.90
52869;DHT22;39100;53.480;6.158;2024-01-30T14:42:33;8.40;99.90
52869;DHT22;39100;53.480;6.158;2024-01-30T14:44:59;8.50;99.90
52869;DHT22;39100;53.480;6.158;2024-01-30T14:47:25;8.30;99.90
52869;DHT22;39100;53.480;6.158;2024-01-30T14:49:51;8.40;99.90
52869;DHT22;39100;53.480;6.158;2024-01-30T14:52:18;8.40;99.90
52869;DHT22;39100;53.480;6.158;2024-01-30T14:54:43;8.40;99.90
52869;DHT22;39100;53.480;6.158;2024-01-30T14:57:09;8.30;99.90
52869;DHT22;39100;53.480;6.158;2024-01-30T14:59:36;8.40;99.90
52869;DHT22;39100;53.480;6.158;2024-01-30T15:02:02;8.40;99.90
52869;DHT22;39100;53.480;6.158;2024-01-30T15:04:27;8.30;99.90
52869;DHT22;39100;53.480;6.158;2024-01-30T15:06:53;8.30;99.90
52869;DHT22;39100;53.480;6.158;2024-01-30T15:09:19;8.30;99.90
52869;DHT22;39100;53.480;6.158;2024-01-30T15:11:47;8.30;99.90
52869;DHT22;39100;53.480;6.158;2024-01-30T15:14:14;8.10;99.90
52869;DHT22;39100;53.480;6.158;2024-01-30T15:16:40;8.10;99.90
52869;DHT22;39100;53.480;6.158;2024-01-30T15:19:05;8.30;99.90
52869;DHT22;39100;53.480;6.158;2024-01-30T15:21:31;8.10;99.90
52869;DHT22;39100;53.480;6.158;2024-01-30T15:23:57;8.20;99.90
52869;DHT22;39100;53.480;6.158;2024-01-30T15:26:23;8.20;99.90
52869;DHT22;39100;53.480;6.158;2024-01-30T15:28:48;8.10;99.90
52869;DHT22;39100;53.480;6.158;2024-01-30T15:31:14;8.10;99.90
52869;DHT22;39100;53.480;6.158;2024-01-30T15:33:39;8.00;99.90
52869;DHT22;39100;53.480;6.158;2024-01-30T15:36:05;7.90;99.90
52869;DHT22;39100;53.480;6.158;2024-01-30T15:38:31;7.90;99.90
52869;DHT22;39100;53.480;6.158;2024-01-30T15:40:57;7.90;99.90
52869;DHT22;39100;53.480;6.158;2024-01-30T15:43:23;7.90;99.90
52869;DHT22;39100;53.480;6.158;2024-01-30T15:45:50;7.70;99.90
52869;DHT22;39100;53.480;6.158;2024-01-30T15:48:19;7.60;99.90
52869;DHT22;39100;53.480;6.158;2024-01-30T15:50:45;7.70;99.90
52869;DHT22;39100;53.480;6.158;2024-01-30T15:53:10;7.50;99.90
52869;DHT22;39100;53.480;6.158;2024-01-30T15:55:36;7.50;99.90
52869;DHT22;39100;53.480;6.158;2024-01-30T15:58:03;7.60;99.90
52869;DHT22;39100;53.480;6.158;2024-01-30T16:00:29;7.60;99.90
52869;DHT22;39100;53.480;6.158;2024-01-30T16:02:54;7.50;99.90
52869;DHT22;39100;53.480;6.158;2024-01-30T16:05:20;7.40;99.90
52869;DHT22;39100;53.480;6.158;2024-01-30T16:07:45;7.50;99.90
52869;DHT22;39100;53.480;6.158;2024-01-30T16:10:11;7.40;99.90
52869;DHT22;39100;53.480;6.158;2024-01-30T16:12:44;7.40;99.90
52869;DHT22;39100;53.480;6.158;2024-01-30T16:15:13;7.40;99.90
52869;DHT22;39100;53.480;6.158;2024-01-30T16:17:39;7.50;99.90
52869;DHT22;39100;53.480;6.158;2024-01-30T16:20:05;7.30;99.90
52869;DHT22;39100;53.480;6.158;2024-01-30T16:22:32;7.30;99.90
52869;DHT22;39100;53.480;6.158;2024-01-30T16:24:57;7.40;99.90
52869;DHT22;39100;53.480;6.158;2024-01-30T16:27:23;7.30;99.90
52869;DHT22;39100;53.480;6.158;2024-01-30T16:29:49;7.20;99.90
52869;DHT22;39100;53.480;6.158;2024-01-30T16:32:14;7.30;99.90
52869;DHT22;39100;53.480;6.158;2024-01-30T16:34:40;7.30;99.90
52869;DHT22;39100;53.480;6.158;2024-01-30T16:37:05;7.20;99.90
52869;DHT22;39100;53.480;6.158;2024-01-30T16:39:31;7.30;99.90
52869;DHT22;39100;53.480;6.158;2024-01-30T16:41:58;7.30;99.90
52869;DHT22;39100;53.480;6.158;2024-01-30T16:44:23;7.10;99.90
52869;DHT22;39100;53.480;6.158;2024-01-30T16:46:50;7.20;99.90
52869;DHT22;39100;53.480;6.158;2024-01-30T16:49:15;7.20;99.90
52869;DHT22;39100;53.480;6.158;2024-01-30T16:51:41;7.20;99.90
52869;DHT22;39100;53.480;6.158;2024-01-30T16:54:06;7.10;99.90
52869;DHT22;39100;53.480;6.158;2024-01-30T16:56:32;7.10;99.90
52869;DHT22;39100;53.480;6.158;2024-01-30T16:58:58;7.10;99.90
52869;DHT22;39100;53.480;6.158;2024-01-30T17:01:24;7.20;99.90
52869;DHT22;39100;53.480;6.158;2024-01-30T17:03:50;7.20;99.90
52869;DHT22;39100;53.480;6.158;2024-01-30T17:06:16;7.20;99.90
52869;DHT22;39100;53.480;6.158;2024-01-30T17:08:41;7.20;99.90
52869;DHT22;39100;53.480;6.158;2024-01-30T17:11:07;7.10;99.90
52869;DHT22;39100;53.480;6.158;2024-01-30T17:13:35;7.10;99.90
52869;DHT22;39100;53.480;6.158;2024-01-30T17:16:01;7.10;99.90
52869;DHT22;39100;53.480;6.158;2024-01-30T17:18:26;7.10;99.90
52869;DHT22;39100;53.480;6.158;2024-01-30T17:20:52;7.10;99.90
52869;DHT22;39100;53.480;6.158;2024-01-30T17:23:17;7.10;99.90
52869;DHT22;39100;53.480;6.158;2024-01-30T17:25:43;7.00;99.90
52869;DHT22;39100;53.480;6.158;2024-01-30T17:28:09;7.90;99.90
52869;DHT22;39100;53.480;6.158;2024-01-30T17:30:35;7.10;99.90
52869;DHT22;39100;53.480;6.158;2024-01-30T17:33:02;7.00;99.90
52869;DHT22;39100;53.480;6.158;2024-01-30T17:35:28;7.00;99.90
52869;DHT22;39100;53.480;6.158;2024-01-30T17:37:54;7.10;99.90
52869;DHT22;39100;53.480;6.158;2024-01-30T17:40:19;7.10;99.90
52869;DHT22;39100;53.480;6.158;2024-01-30T17:42:45;7.00;99.90
52869;DHT22;39100;53.480;6.158;2024-01-30T17:45:10;7.00;99.90
52869;DHT22;39100;53.480;6.158;2024-01-30T17:47:37;7.20;99.90
52869;DHT22;39100;53.480;6.158;2024-01-30T17:50:04;7.10;99.90
52869;DHT22;39100;53.480;6.158;2024-01-30T17:52:31;7.00;99.90
52869;DHT22;39100;53.480;6.158;2024-01-30T17:54:56;7.10;99.90
52869;DHT22;39100;53.480;6.158;2024-01-30T17:57:22;7.00;99.90
52869;DHT22;39100;53.480;6.158;2024-01-30T17:59:48;7.10;99.90
52869;DHT22;39100;53.480;6.158;2024-01-30T18:02:14;7.10;99.90
52869;DHT22;39100;53.480;6.158;2024-01-30T18:04:40;7.10;99.90
52869;DHT22;39100;53.480;6.158;2024-01-30T18:07:06;7.10;99.90
52869;DHT22;39100;53.480;6.158;2024-01-30T18:09:31;7.10;99.90
52869;DHT22;39100;53.480;6.158;2024-01-30T18:11:57;7.00;99.90
52869;DHT22;39100;53.480;6.158;2024-01-30T18:14:23;7.10;99.90
52869;DHT22;39100;53.480;6.158;2024-01-30T18:16:48;7.00;99.90
52869;DHT22;39100;53.480;6.158;2024-01-30T18:19:14;7.10;99.90
52869;DHT22;39100;53.480;6.158;2024-01-30T18:21:40;7.00;99.90
52869;DHT22;39100;53.480;6.158;2024-01-30T18:24:06;7.00;99.90
52869;DHT22;39100;53.480;6.158;2024-01-30T18:26:32;7.10;99.90
52869;DHT22;39100;53.480;6.158;2024-01-30T18:28:57;7.60;99.90
52869;DHT22;39100;53.480;6.158;2024-01-30T18:31:23;6.90;99.90
52869;DHT22;39100;53.480;6.158;2024-01-30T18:33:49;6.90;99.90
52869;DHT22;39100;53.480;6.158;2024-01-30T18:36:22;7.10;99.90
52869;DHT22;39100;53.480;6.158;2024-01-30T18:38:51;7.00;99.90
52869;DHT22;39100;53.480;6.158;2024-01-30T18:41:17;7.00;99.90
52869;DHT22;39100;53.480;6.158;2024-01-30T18:43:43;7.00;99.90
52869;DHT22;39100;53.480;6.158;2024-01-30T18:46:10;6.90;99.90
52869;DHT22;39100;53.480;6.158;2024-01-30T18:48:39;7.00;99.90
52869;DHT22;39100;53.480;6.158;2024-01-30T18:51:05;7.00;99.90
52869;DHT22;39100;53.480;6.158;2024-01-30T18:53:31;7.00;99.90
52869;DHT22;39100;53.480;6.158;2024-01-30T18:55:56;6.90;99.90
52869;DHT22;39100;53.480;6.158;2024-01-30T18:58:22;6.90;99.90
52869;DHT22;39100;53.480;6.158;2024-01-30T19:00:48;6.90;99.90
52869;DHT22;39100;53.480;6.158;2024-01-30T19:03:15;7.00;99.90
52869;DHT22;39100;53.480;6.158;2024-01-30T19:05:43;7.00;99.90
52869;DHT22;39100;53.480;6.158;2024-01-30T19:08:08;7.00;99.90
52869;DHT22;39100;53.480;6.158;2024-01-30T19:10:34;7.00;99.90
52869;DHT22;39100;53.480;6.158;2024-01-30T19:13:01;6.90;99.90
52869;DHT22;39100;53.480;6.158;2024-01-30T19:15:27;6.90;99.90
52869;DHT22;39100;53.480;6.158;2024-01-30T19:17:52;7.00;99.90
52869;DHT22;39100;53.480;6.158;2024-01-30T19:20:18;6.90;99.90
52869;DHT22;39100;53.480;6.158;2024-01-30T19:22:43;6.90;99.90
52869;DHT22;39100;53.480;6.158;2024-01-30T19:25:09;6.90;99.90
52869;DHT22;39100;53.480;6.158;2024-01-30T19:27:35;7.00;99.90
52869;DHT22;39100;53.480;6.158;2024-01-30T19:30:01;6.90;99.90
52869;DHT22;39100;53.480;6.158;2024-01-30T19:32:26;6.90;99.90
52869;DHT22;39100;53.480;6.158;2024-01-30T19:34:52;6.90;99.90
52869;DHT22;39100;53.480;6.158;2024-01-30T19:37:19;6.90;99.90
52869;DHT22;39100;53.480;6.158;2024-01-30T19:39:48;6.90;99.90
52869;DHT22;39100;53.480;6.158;2024-01-30T19:42:14;6.90;99.90
52869;DHT22;39100;53.480;6.158;2024-01-30T19:44:40;6.90;99.90
52869;DHT22;39100;53.480;6.158;2024-01-30T19:47:06;6.80;99.90
52869;DHT22;39100;53.480;6.158;2024-01-30T19:49:38;6.80;99.90
52869;DHT22;39100;53.480;6.158;2024-01-30T19:52:07;6.80;99.90
52869;DHT22;39100;53.480;6.158;2024-01-30T19:54:34;6.80;99.90
52869;DHT22;39100;53.480;6.158;2024-01-30T19:57:00;6.80;99.90
52869;DHT22;39100;53.480;6.158;2024-01-30T19:59:29;6.90;99.90
52869;DHT22;39100;53.480;6.158;2024-01-30T20:01:57;6.70;99.90
52869;DHT22;39100;53.480;6.158;2024-01-30T20:04:22;6.80;99.90
52869;DHT22;39100;53.480;6.158;2024-01-30T20:06:49;6.70;99.90
52869;DHT22;39100;53.480;6.158;2024-01-30T20:09:15;6.70;99.90
52869;DHT22;39100;53.480;6.158;2024-01-30T20:11:40;6.70;99.90
52869;DHT22;39100;53.480;6.158;2024-01-30T20:14:06;6.60;99.90
52869;DHT22;39100;53.480;6.158;2024-01-30T20:16:39;6.70;99.90
52869;DHT22;39100;53.480;6.158;2024-01-30T20:19:05;6.70;99.90
52869;DHT22;39100;53.480;6.158;2024-01-30T20:21:33;6.70;99.90
52869;DHT22;39100;53.480;6.158;2024-01-30T20:23:59;6.70;99.90
52869;DHT22;39100;53.480;6.158;2024-01-30T20:26:24;6.70;99.90
52869;DHT22;39100;53.480;6.158;2024-01-30T20:28:50;6.70;99.90
52869;DHT22;39100;53.480;6.158;2024-01-30T20:31:23;6.60;99.90
52869;DHT22;39100;53.480;6.158;2024-01-30T20:33:49;6.60;99.90
52869;DHT22;39100;53.480;6.158;2024-01-30T20:36:16;6.60;99.90
52869;DHT22;39100;53.480;6.158;2024-01-30T20:38:42;6.60;99.90
52869;DHT22;39100;53.480;6.158;2024-01-30T20:41:08;6.60;99.90
52869;DHT22;39100;53.480;6.158;2024-01-30T20:43:37;6.50;99.90
52869;DHT22;39100;53.480;6.158;2024-01-30T20:46:02;6.50;99.90
52869;DHT22;39100;53.480;6.158;2024-01-30T20:48:28;6.40;99.90
52869;DHT22;39100;53.480;6.158;2024-01-30T20:50:53;6.60;99.90
52869;DHT22;39100;53.480;6.158;2024-01-30T20:53:20;6.60;99.90
52869;DHT22;39100;53.480;6.158;2024-01-30T20:55:45;6.60;99.90
52869;DHT22;39100;53.480;6.158;2024-01-30T20:58:11;6.60;99.90
52869;DHT22;39100;53.480;6.158;2024-01-30T21:00:36;6.60;99.90
52869;DHT22;39100;53.480;6.158;2024-01-30T21:03:02;6.50;99.90
52869;DHT22;39100;53.480;6.158;2024-01-30T21:05:28;6.50;99.90
52869;DHT22;39100;53.480;6.158;2024-01-30T21:07:54;6.40;99.90
52869;DHT22;39100;53.480;6.158;2024-01-30T21:10:19;6.50;99.90
52869;DHT22;39100;53.480;6.158;2024-01-30T21:12:45;6.50;99.90
52869;DHT22;39100;53.480;6.158;2024-01-30T21:15:11;6.50;99.90
52869;DHT22;39100;53.480;6.158;2024-01-30T21:17:36;6.50;99.90
52869;DHT22;39100;53.480;6.158;2024-01-30T21:20:02;6.40;99.90
52869;DHT22;39100;53.480;6.158;2024-01-30T21:22:29;6.40;99.90
52869;DHT22;39100;53.480;6.158;2024-01-30T21:24:54;6.40;99.90
52869;DHT22;39100;53.480;6.158;2024-01-30T21:27:20;6.40;99.90
52869;DHT22;39100;53.480;6.158;2024-01-30T21:29:45;6.40;99.90
52869;DHT22;39100;53.480;6.158;2024-01-30T21:32:14;6.40;99.90
52869;DHT22;39100;53.480;6.158;2024-01-30T21:34:41;6.50;99.90
52869;DHT22;39100;53.480;6.158;2024-01-30T21:37:06;6.50;99.90
52869;DHT22;39100;53.480;6.158;2024-01-30T21:39:32;6.50;99.90
52869;DHT22;39100;53.480;6.158;2024-01-30T21:41:58;6.50;99.90
52869;DHT22;39100;53.480;6.158;2024-01-30T21:44:23;6.50;99.90
52869;DHT22;39100;53.480;6.158;2024-01-30T21:46:49;6.50;99.90
52869;DHT22;39100;53.480;6.158;2024-01-30T21:49:15;6.50;99.90
52869;DHT22;39100;53.480;6.158;2024-01-30T21:51:44;6.50;99.90
52869;DHT22;39100;53.480;6.158;2024-01-30T21:54:09;6.60;99.90
52869;DHT22;39100;53.480;6.158;2024-01-30T21:56:35;6.50;99.90
52869;DHT22;39100;53.480;6.158;2024-01-30T21:59:03;6.50;99.90
52869;DHT22;39100;53.480;6.158;2024-01-30T22:01:28;6.50;99.90
52869;DHT22;39100;53.480;6.158;2024-01-30T22:03:54;6.50;99.90
52869;DHT22;39100;53.480;6.158;2024-01-30T22:06:20;6.50;99.90
52869;DHT22;39100;53.480;6.158;2024-01-30T22:08:47;6.40;99.90
52869;DHT22;39100;53.480;6.158;2024-01-30T22:11:12;6.40;99.90
52869;DHT22;39100;53.480;6.158;2024-01-30T22:13:38;6.40;99.90
52869;DHT22;39100;53.480;6.158;2024-01-30T22:16:04;6.40;99.90
52869;DHT22;39100;53.480;6.158;2024-01-30T22:18:30;6.30;99.90
52869;DHT22;39100;53.480;6.158;2024-01-30T22:20:55;6.40;99.90
52869;DHT22;39100;53.480;6.158;2024-01-30T22:23:21;6.40;99.90
52869;DHT22;39100;53.480;6.158;2024-01-30T22:25:47;6.40;99.90
52869;DHT22;39100;53.480;6.158;2024-01-30T22:28:12;6.30;99.90
52869;DHT22;39100;53.480;6.158;2024-01-30T22:30:38;6.40;99.90
52869;DHT22;39100;53.480;6.158;2024-01-30T22:33:03;6.30;99.90
52869;DHT22;39100;53.480;6.158;2024-01-30T22:35:31;6.40;99.90
52869;DHT22;39100;53.480;6.158;2024-01-30T22:37:56;6.40;99.90
52869;DHT22;39100;53.480;6.158;2024-01-30T22:40:22;6.40;99.90
52869;DHT22;39100;53.480;6.158;2024-01-30T22:42:48;6.40;99.90
52869;DHT22;39100;53.480;6.158;2024-01-30T22:45:13;6.40;99.90
52869;DHT22;39100;53.480;6.158;2024-01-30T22:47:39;6.50;99.90
52869;DHT22;39100;53.480;6.158;2024-01-30T22:50:05;6.50;99.90
52869;DHT22;39100;53.480;6.158;2024-01-30T22:52:30;6.50;99.90
52869;DHT22;39100;53.480;6.158;2024-01-30T22:54:56;6.60;99.90
52869;DHT22;39100;53.480;6.158;2024-01-30T22:57:22;6.60;99.90
52869;DHT22;39100;53.480;6.158;2024-01-30T22:59:48;6.60;99.90
52869;DHT22;39100;53.480;6.158;2024-01-30T23:02:14;6.50;99.90
52869;DHT22;39100;53.480;6.158;2024-01-30T23:04:41;6.50;99.90
52869;DHT22;39100;53.480;6.158;2024-01-30T23:07:06;7.00;99.90
52869;DHT22;39100;53.480;6.158;2024-01-30T23:09:32;6.50;99.90
52869;DHT22;39100;53.480;6.158;2024-01-30T23:11:58;6.60;99.90
52869;DHT22;39100;53.480;6.158;2024-01-30T23:14:24;6.50;99.90
52869;DHT22;39100;53.480;6.158;2024-01-30T23:16:49;6.60;99.90
52869;DHT22;39100;53.480;6.158;2024-01-30T23:19:15;6.60;99.90
52869;DHT22;39100;53.480;6.158;2024-01-30T23:21:41;6.60;99.90
52869;DHT22;39100;53.480;6.158;2024-01-30T23:24:07;6.60;99.90
52869;DHT22;39100;53.480;6.158;2024-01-30T23:26:32;6.60;99.90
52869;DHT22;39100;53.480;6.158;2024-01-30T23:28:58;6.60;99.90
52869;DHT22;39100;53.480;6.158;2024-01-30T23:31:24;6.60;99.90
52869;DHT22;39100;53.480;6.158;2024-01-30T23:33:49;6.60;99.90
52869;DHT22;39100;53.480;6.158;2024-01-30T23:36:15;6.60;99.90
52869;DHT22;39100;53.480;6.158;2024-01-30T23:38:40;6.50;99.90
52869;DHT22;39100;53.480;6.158;2024-01-30T23:41:06;6.60;99.90
52869;DHT22;39100;53.480;6.158;2024-01-30T23:43:32;6.50;99.90
52869;DHT22;39100;53.480;6.158;2024-01-30T23:45:58;6.60;99.90
52869;DHT22;39100;53.480;6.158;2024-01-30T23:48:24;6.60;99.90
52869;DHT22;39100;53.480;6.158;2024-01-30T23:50:49;6.60;99.90
52869;DHT22;39100;53.480;6.158;2024-01-30T23:53:16;6.60;99.90
52869;DHT22;39100;53.480;6.158;2024-01-30T23:55:42;6.50;99.90
52869;DHT22;39100;53.480;6.158;2024-01-30T23:58:07;6.50;99.90
